createdAt,value
2018-12-09T00:00:36.768Z,84.91
2018-12-09T00:03:05.264Z,85.45
2018-12-09T00:05:33.729Z,85.58
2018-12-09T00:08:02.173Z,85.87
2018-12-09T00:10:30.694Z,85.98
2018-12-09T00:12:59.630Z,85.96
2018-12-09T00:15:28.780Z,86.13
2018-12-09T00:17:57.288Z,86.04
2018-12-09T00:20:25.738Z,85.86
2018-12-09T00:26:21.877Z,85.54
2018-12-09T00:28:51.116Z,85.82
2018-12-09T00:31:19.536Z,86.13
2018-12-09T00:33:48.003Z,85.88
2018-12-09T00:36:16.519Z,86.17
2018-12-09T00:38:44.972Z,86.08
2018-12-09T00:41:13.397Z,86.40
2018-12-09T00:43:42.035Z,86.25
2018-12-09T00:46:10.458Z,85.98
2018-12-09T00:48:38.953Z,85.95
2018-12-09T00:51:07.462Z,86.24
2018-12-09T00:53:35.886Z,86.44
2018-12-09T00:56:04.286Z,84.84
2018-12-09T00:58:32.764Z,85.65
2018-12-09T01:01:01.213Z,86.47
2018-12-09T01:03:29.649Z,86.81
2018-12-09T01:05:58.520Z,87.31
2018-12-09T01:08:27.084Z,87.91
2018-12-09T01:10:55.507Z,87.97
2018-12-09T01:13:23.978Z,87.68
2018-12-09T01:15:52.404Z,87.75
2018-12-09T01:18:20.839Z,86.95
2018-12-09T01:20:49.308Z,86.95
2018-12-09T01:23:17.760Z,86.56
2018-12-09T01:25:46.230Z,86.37
2018-12-09T01:28:14.774Z,86.39
2018-12-09T01:30:43.341Z,86.44
2018-12-09T01:33:11.855Z,86.40
2018-12-09T01:35:40.344Z,85.83
2018-12-09T01:38:08.854Z,85.83
2018-12-09T01:43:30.076Z,85.40
2018-12-09T01:45:59.088Z,85.99
2018-12-09T01:48:27.530Z,85.84
2018-12-09T01:54:22.836Z,86.33
2018-12-09T01:56:51.356Z,86.41
2018-12-09T01:59:19.827Z,86.44
2018-12-09T02:01:48.268Z,86.01
2018-12-09T02:04:17.144Z,86.20
2018-12-09T02:06:45.802Z,86.12
2018-12-09T02:09:14.266Z,86.43
2018-12-09T02:11:42.986Z,86.04
2018-12-09T02:14:11.453Z,86.39
2018-12-09T02:16:40.314Z,86.48
2018-12-09T02:19:16.186Z,85.99
2018-12-09T02:21:44.873Z,85.53
2018-12-09T02:24:14.389Z,85.64
2018-12-09T02:26:42.930Z,85.61
2018-12-09T02:29:11.356Z,84.76
2018-12-09T02:31:39.803Z,84.80
2018-12-09T02:34:08.336Z,84.90
2018-12-09T02:36:37.376Z,84.46
2018-12-09T02:39:06.232Z,84.86
2018-12-09T02:41:34.729Z,84.80
2018-12-09T02:44:03.272Z,84.81
2018-12-09T02:46:31.750Z,84.45
2018-12-09T02:49:00.248Z,84.29
2018-12-09T02:51:28.719Z,84.32
2018-12-09T02:53:58.069Z,84.48
2018-12-09T02:56:26.539Z,84.20
2018-12-09T02:58:54.957Z,84.23
2018-12-09T03:01:23.367Z,84.55
2018-12-09T03:03:51.998Z,84.37
2018-12-09T03:06:21.002Z,84.34
2018-12-09T03:08:49.377Z,84.50
2018-12-09T03:11:17.867Z,84.65
2018-12-09T03:13:48.100Z,84.48
2018-12-09T03:16:16.548Z,84.63
2018-12-09T03:18:45.681Z,84.70
2018-12-09T03:21:14.123Z,85.14
2018-12-09T03:23:42.572Z,85.12
2018-12-09T03:26:11.963Z,85.15
2018-12-09T03:28:40.485Z,85.16
2018-12-09T03:31:08.926Z,85.20
2018-12-09T03:33:37.409Z,84.96
2018-12-09T03:36:05.850Z,85.00
2018-12-09T03:38:34.295Z,84.96
2018-12-09T03:41:03.035Z,85.22
2018-12-09T03:43:32.300Z,85.79
2018-12-09T03:46:00.749Z,85.81
2018-12-09T03:48:29.225Z,85.45
2018-12-09T03:50:57.665Z,85.84
2018-12-09T03:53:26.133Z,86.08
2018-12-09T03:55:55.036Z,86.03
2018-12-09T03:58:23.485Z,85.96
2018-12-09T04:00:51.924Z,86.14
2018-12-09T04:03:20.408Z,85.79
2018-12-09T04:05:49.165Z,86.05
2018-12-09T04:08:17.602Z,86.10
2018-12-09T04:10:46.085Z,86.31
2018-12-09T04:13:14.526Z,86.19
2018-12-09T04:15:43.305Z,85.87
2018-12-09T04:18:12.109Z,85.55
2018-12-09T04:20:40.546Z,85.31
2018-12-09T04:23:09.026Z,86.53
2018-12-09T04:25:37.511Z,85.99
2018-12-09T04:28:05.932Z,86.01
2018-12-09T04:30:34.592Z,86.16
2018-12-09T04:33:03.048Z,86.55
2018-12-09T04:35:33.226Z,86.47
2018-12-09T04:38:01.635Z,85.81
2018-12-09T04:40:31.067Z,85.44
2018-12-09T04:42:59.965Z,85.99
2018-12-09T04:45:28.391Z,86.21
2018-12-09T04:47:56.886Z,86.85
2018-12-09T04:50:25.319Z,86.55
2018-12-09T04:52:53.734Z,86.46
2018-12-09T04:55:22.753Z,86.14
2018-12-09T04:57:51.572Z,86.07
2018-12-09T05:00:35.690Z,85.98
2018-12-09T05:03:06.073Z,86.25
2018-12-09T05:05:34.539Z,85.22
2018-12-09T05:08:03.068Z,86.28
2018-12-09T05:10:31.802Z,85.94
2018-12-09T05:13:00.248Z,86.12
2018-12-09T05:15:28.717Z,85.76
2018-12-09T05:17:57.476Z,86.24
2018-12-09T05:20:27.022Z,86.06
2018-12-09T05:22:55.504Z,86.51
2018-12-09T05:25:25.404Z,86.20
2018-12-09T05:27:54.324Z,86.35
2018-12-09T05:30:22.867Z,86.48
2018-12-09T05:32:51.512Z,86.45
2018-12-09T05:35:20.396Z,85.87
2018-12-09T05:37:48.849Z,85.47
2018-12-09T05:40:17.325Z,85.46
2018-12-09T05:42:45.766Z,85.52
2018-12-09T05:45:14.237Z,85.74
2018-12-09T05:47:42.976Z,85.87
2018-12-09T05:50:11.419Z,85.17
2018-12-09T05:52:39.931Z,85.15
2018-12-09T05:55:08.390Z,84.96
2018-12-09T05:57:36.873Z,84.61
2018-12-09T06:00:05.874Z,85.46
2018-12-09T06:02:49.428Z,85.81
2018-12-09T06:05:18.247Z,85.90
2018-12-09T06:07:46.765Z,84.78
2018-12-09T06:10:15.468Z,85.58
2018-12-09T06:12:43.973Z,85.62
2018-12-09T06:15:12.705Z,85.47
2018-12-09T06:17:41.183Z,85.14
2018-12-09T06:20:10.037Z,85.67
2018-12-09T06:25:28.668Z,86.16
2018-12-09T06:27:57.128Z,85.85
2018-12-09T06:30:25.601Z,85.73
2018-12-09T06:32:54.058Z,85.71
2018-12-09T06:35:22.516Z,85.50
2018-12-09T06:37:50.984Z,84.66
2018-12-09T06:40:20.558Z,84.91
2018-12-09T06:42:49.342Z,85.48
2018-12-09T06:45:17.824Z,85.44
2018-12-09T06:47:46.325Z,84.10
2018-12-09T06:50:15.680Z,85.48
2018-12-09T06:52:44.580Z,85.62
2018-12-09T06:55:13.408Z,85.14
2018-12-09T06:57:41.874Z,85.51
2018-12-09T07:00:10.359Z,84.84
2018-12-09T07:02:38.872Z,83.95
2018-12-09T07:05:08.008Z,84.50
2018-12-09T07:07:36.497Z,84.52
2018-12-09T07:10:07.268Z,84.12
2018-12-09T07:12:35.729Z,83.76
2018-12-09T07:15:04.884Z,83.69
2018-12-09T07:17:33.300Z,83.16
2018-12-09T07:20:01.747Z,83.00
2018-12-09T07:22:30.214Z,82.62
2018-12-09T07:24:58.701Z,81.70
2018-12-09T07:27:27.418Z,81.75
2018-12-09T07:30:02.076Z,82.33
2018-12-09T07:32:26.961Z,82.36
2018-12-09T07:34:55.393Z,80.40
2018-12-09T07:37:23.863Z,80.57
2018-12-09T07:39:52.260Z,81.16
2018-12-09T07:42:20.740Z,82.23
2018-12-09T07:44:49.284Z,82.38
2018-12-09T07:47:19.017Z,82.23
2018-12-09T07:49:47.455Z,81.66
2018-12-09T07:52:15.961Z,81.42
2018-12-09T07:54:44.534Z,85.65
2018-12-09T07:57:13.064Z,78.89
2018-12-09T07:59:41.525Z,76.81
2018-12-09T08:02:09.928Z,77.04
2018-12-09T08:04:38.367Z,75.91
2018-12-09T08:07:06.820Z,75.05
2018-12-09T08:09:35.286Z,74.17
2018-12-09T08:12:03.735Z,83.46
2018-12-09T08:14:32.266Z,78.12
2018-12-09T08:17:00.712Z,76.13
2018-12-09T08:19:29.158Z,73.83
2018-12-09T08:21:57.675Z,69.86
2018-12-09T08:24:26.129Z,69.15
2018-12-09T08:26:56.480Z,67.60
2018-12-09T08:29:24.955Z,68.28
2018-12-09T08:31:53.375Z,66.29
2018-12-09T08:34:21.824Z,65.40
2018-12-09T08:36:50.301Z,65.28
2018-12-09T08:39:18.741Z,67.34
2018-12-09T08:41:47.184Z,68.21
2018-12-09T08:44:15.661Z,67.17
2018-12-09T08:46:44.105Z,68.10
2018-12-09T08:49:12.580Z,65.43
2018-12-09T08:51:41.105Z,65.35
2018-12-09T08:54:09.514Z,64.07
2018-12-09T08:56:37.953Z,62.08
2018-12-09T08:59:06.428Z,61.80
2018-12-09T09:01:34.865Z,61.33
2018-12-09T09:04:03.270Z,60.45
2018-12-09T09:06:31.761Z,63.40
2018-12-09T09:09:00.198Z,66.86
2018-12-09T09:11:28.628Z,65.63
2018-12-09T09:13:57.089Z,64.16
2018-12-09T09:16:25.562Z,63.87
2018-12-09T09:18:54.034Z,64.69
2018-12-09T09:21:22.506Z,65.38
2018-12-09T09:23:50.975Z,66.11
2018-12-09T09:26:19.509Z,67.50
2018-12-09T09:28:48.093Z,67.55
2018-12-09T09:31:16.590Z,68.32
2018-12-09T09:33:45.130Z,69.52
2018-12-09T09:36:13.637Z,70.19
2018-12-09T09:38:42.129Z,70.55
2018-12-09T09:41:10.585Z,69.61
2018-12-09T09:43:39.081Z,68.79
2018-12-09T09:46:07.516Z,69.11
2018-12-09T09:48:35.976Z,69.26
2018-12-09T09:51:05.140Z,69.74
2018-12-09T09:53:35.518Z,64.99
2018-12-09T09:56:04.105Z,67.32
2018-12-09T09:58:32.585Z,66.95
2018-12-09T10:01:01.025Z,66.93
2018-12-09T10:03:29.468Z,68.36
2018-12-09T10:05:57.956Z,68.62
2018-12-09T10:08:26.435Z,68.70
2018-12-09T10:10:54.868Z,69.59
2018-12-09T10:13:23.400Z,70.40
2018-12-09T10:15:51.890Z,71.27
2018-12-09T10:18:21.997Z,72.21
2018-12-09T10:20:50.502Z,73.75
2018-12-09T10:23:18.956Z,73.38
2018-12-09T10:25:47.462Z,72.17
2018-12-09T10:28:15.960Z,72.34
2018-12-09T10:30:44.411Z,71.96
2018-12-09T10:33:12.865Z,71.68
2018-12-09T10:35:41.366Z,71.85
2018-12-09T10:38:10.076Z,71.81
2018-12-09T10:40:39.154Z,71.76
2018-12-09T10:43:07.627Z,71.35
2018-12-09T10:45:36.066Z,71.37
2018-12-09T10:48:04.568Z,69.93
2018-12-09T10:50:33.211Z,68.86
2018-12-09T10:53:01.646Z,69.21
2018-12-09T10:55:30.715Z,69.83
2018-12-09T10:57:59.198Z,70.13
2018-12-09T11:00:33.373Z,70.63
2018-12-09T11:03:02.616Z,71.04
2018-12-09T11:05:31.125Z,71.21
2018-12-09T11:07:59.590Z,71.57
2018-12-09T11:10:28.717Z,71.47
2018-12-09T11:12:58.181Z,71.59
2018-12-09T11:15:26.640Z,71.30
2018-12-09T11:17:55.149Z,71.40
2018-12-09T11:20:23.639Z,71.62
2018-12-09T11:22:52.242Z,72.18
2018-12-09T11:25:21.026Z,72.16
2018-12-09T11:27:52.377Z,72.19
2018-12-09T11:30:23.437Z,71.93
2018-12-09T11:32:51.866Z,71.49
2018-12-09T11:35:20.365Z,71.40
2018-12-09T11:37:48.888Z,70.94
2018-12-09T11:40:17.432Z,71.47
2018-12-09T11:42:46.004Z,70.75
2018-12-09T11:45:15.360Z,70.53
2018-12-09T11:47:43.869Z,70.80
2018-12-09T11:50:12.606Z,71.68
2018-12-09T11:52:41.146Z,72.79
2018-12-09T11:55:10.250Z,73.22
2018-12-09T11:57:39.610Z,73.39
2018-12-09T12:00:11.461Z,73.88
2018-12-09T12:02:40.181Z,73.22
2018-12-09T12:05:08.688Z,74.04
2018-12-09T12:07:37.308Z,74.96
2018-12-09T12:10:06.825Z,74.11
2018-12-09T12:12:35.631Z,73.69
2018-12-09T12:15:05.392Z,74.20
2018-12-09T12:17:33.968Z,73.66
2018-12-09T12:20:02.501Z,72.53
2018-12-09T12:22:31.083Z,72.67
2018-12-09T12:24:59.738Z,72.48
2018-12-09T12:27:29.316Z,72.60
2018-12-09T12:29:59.386Z,72.17
2018-12-09T12:32:27.890Z,71.72
2018-12-09T12:34:56.547Z,71.52
2018-12-09T12:37:25.188Z,71.60
2018-12-09T12:39:54.147Z,71.31
2018-12-09T12:42:23.118Z,72.06
2018-12-09T12:44:52.289Z,71.24
2018-12-09T12:47:21.726Z,70.59
2018-12-09T12:49:50.537Z,71.40
2018-12-09T12:52:19.170Z,72.21
2018-12-09T12:54:47.970Z,72.44
2018-12-09T12:57:16.550Z,72.60
2018-12-09T12:59:45.178Z,72.36
2018-12-09T13:02:13.691Z,72.66
2018-12-09T13:04:42.779Z,72.66
2018-12-09T13:07:11.403Z,72.85
2018-12-09T13:09:40.271Z,72.65
2018-12-09T13:12:09.292Z,71.90
2018-12-09T13:14:42.297Z,72.34
2018-12-09T13:17:11.132Z,72.91
2018-12-09T13:19:39.708Z,73.17
2018-12-09T13:22:08.835Z,73.07
2018-12-09T13:24:37.425Z,73.28
2018-12-09T13:27:06.242Z,73.62
2018-12-09T13:29:35.721Z,73.93
2018-12-09T13:32:05.027Z,73.81
2018-12-09T13:34:34.086Z,74.40
2018-12-09T13:37:03.156Z,74.88
2018-12-09T13:39:31.717Z,75.06
2018-12-09T13:42:00.296Z,75.44
2018-12-09T13:44:28.795Z,76.06
2018-12-09T13:46:57.324Z,76.14
2018-12-09T13:49:25.895Z,77.16
2018-12-09T13:51:54.659Z,77.27
2018-12-09T13:54:23.417Z,77.33
2018-12-09T13:56:52.044Z,77.68
2018-12-09T13:59:21.429Z,77.32
2018-12-09T14:01:50.879Z,76.74
2018-12-09T14:04:21.148Z,76.79
2018-12-09T14:06:49.731Z,76.32
2018-12-09T14:09:19.186Z,76.35
2018-12-09T14:11:47.855Z,75.83
2018-12-09T14:14:17.467Z,76.55
2018-12-09T14:16:46.260Z,76.73
2018-12-09T14:19:14.886Z,76.51
2018-12-09T14:21:43.959Z,76.77
2018-12-09T14:24:12.878Z,76.42
2018-12-09T14:26:42.586Z,76.72
2018-12-09T14:29:11.273Z,76.66
2018-12-09T14:31:40.313Z,76.76
2018-12-09T14:34:08.891Z,76.23
2018-12-09T14:36:37.435Z,75.80
2018-12-09T14:39:08.158Z,75.47
2018-12-09T14:41:37.729Z,75.84
2018-12-09T14:44:07.567Z,76.02
2018-12-09T14:46:38.845Z,76.58
2018-12-09T14:49:07.345Z,76.79
2018-12-09T14:51:36.223Z,77.13
2018-12-09T14:54:05.835Z,76.29
2018-12-09T14:56:35.208Z,76.35
2018-12-09T14:59:03.765Z,76.70
2018-12-09T15:01:33.470Z,76.87
2018-12-09T15:04:02.086Z,77.25
2018-12-09T15:06:30.886Z,77.36
2018-12-09T15:08:59.471Z,76.65
2018-12-09T15:11:28.266Z,75.60
2018-12-09T15:13:57.115Z,77.05
2018-12-09T15:16:27.731Z,82.74
2018-12-09T15:18:56.393Z,80.73
2018-12-09T15:21:25.568Z,78.79
2018-12-09T15:23:54.200Z,77.64
2018-12-09T15:26:23.825Z,76.39
2018-12-09T15:28:52.805Z,76.49
2018-12-09T15:31:21.788Z,77.18
2018-12-09T15:33:50.578Z,76.24
2018-12-09T15:36:19.478Z,76.26
2018-12-09T15:38:48.819Z,76.39
2018-12-09T15:41:17.734Z,76.05
2018-12-09T15:43:46.998Z,76.72
2018-12-09T15:46:16.537Z,76.87
2018-12-09T15:48:49.471Z,77.54
2018-12-09T15:51:18.334Z,77.97
2018-12-09T15:53:47.978Z,78.46
2018-12-09T15:56:16.569Z,78.70
2018-12-09T15:58:45.135Z,78.90
2018-12-09T16:01:13.704Z,79.23
2018-12-09T16:03:42.359Z,79.24
2018-12-09T16:06:11.013Z,79.17
2018-12-09T16:08:39.638Z,79.21
2018-12-09T16:11:12.430Z,79.19
2018-12-09T16:13:41.273Z,79.23
2018-12-09T16:16:11.370Z,79.87
2018-12-09T16:18:40.027Z,79.71
2018-12-09T16:21:13.604Z,80.69
2018-12-09T16:23:42.371Z,79.72
2018-12-09T16:26:11.063Z,79.75
2018-12-09T16:28:39.751Z,79.29
2018-12-09T16:31:09.592Z,80.45
2018-12-09T16:33:38.363Z,80.47
2018-12-09T16:36:06.977Z,80.98
2018-12-09T16:38:36.820Z,80.64
2018-12-09T16:41:10.682Z,81.09
2018-12-09T16:43:39.612Z,80.96
2018-12-09T16:46:10.202Z,80.99
2018-12-09T16:48:40.880Z,80.91
2018-12-09T16:51:09.611Z,80.92
2018-12-09T16:53:40.406Z,80.99
2018-12-09T16:56:09.286Z,81.31
2018-12-09T16:58:38.067Z,82.17
2018-12-09T17:03:40.252Z,81.83
2018-12-09T17:06:09.854Z,82.10
2018-12-09T17:08:39.481Z,82.16
2018-12-09T17:11:08.900Z,82.45
2018-12-09T17:13:37.501Z,82.66
2018-12-09T17:16:06.094Z,82.68
2018-12-09T17:18:38.345Z,82.64
2018-12-09T17:21:08.944Z,82.33
2018-12-09T17:23:37.765Z,81.98
2018-12-09T17:26:07.757Z,81.80
2018-12-09T17:28:37.530Z,82.69
2018-12-09T17:31:06.135Z,82.67
2018-12-09T17:33:39.612Z,83.26
2018-12-09T17:36:08.251Z,83.73
2018-12-09T17:38:38.456Z,83.68
2018-12-09T17:41:07.636Z,83.64
2018-12-09T17:43:36.353Z,83.78
2018-12-09T17:46:06.265Z,83.71
2018-12-09T17:48:35.940Z,82.65
2018-12-09T17:51:06.672Z,82.70
2018-12-09T17:53:37.525Z,81.68
2018-12-09T17:56:07.597Z,83.71
2018-12-09T17:58:39.373Z,83.50
2018-12-09T18:01:10.221Z,83.52
2018-12-09T18:03:38.845Z,82.54
2018-12-09T18:06:08.338Z,82.29
2018-12-09T18:08:38.377Z,83.16
2018-12-09T18:11:10.005Z,83.52
2018-12-09T18:13:38.866Z,82.79
2018-12-09T18:16:08.806Z,83.38
2018-12-09T18:18:37.527Z,83.44
2018-12-09T18:21:08.121Z,83.42
2018-12-09T18:23:36.871Z,83.51
2018-12-09T18:26:07.131Z,83.75
2018-12-09T18:28:36.150Z,83.84
2018-12-09T18:31:05.917Z,83.77
2018-12-09T18:33:36.180Z,84.20
2018-12-09T18:36:04.861Z,84.12
2018-12-09T18:41:13.615Z,84.00
2018-12-09T18:43:42.480Z,84.02
2018-12-09T18:46:12.294Z,84.64
2018-12-09T18:48:41.007Z,84.37
2018-12-09T18:51:12.547Z,85.19
2018-12-09T18:53:46.018Z,85.20
2018-12-09T18:56:15.145Z,85.12
2018-12-09T18:58:45.557Z,84.81
2018-12-09T19:01:16.288Z,85.33
2018-12-09T19:06:18.865Z,89.05
2018-12-09T19:08:48.553Z,84.99
2018-12-09T19:13:51.881Z,84.33
2018-12-09T19:16:20.916Z,84.38
2018-12-09T19:18:50.081Z,84.92
2018-12-09T19:21:23.122Z,84.52
2018-12-09T19:26:26.846Z,85.06
2018-12-09T19:28:55.527Z,85.33
2018-12-09T19:31:24.889Z,84.47
2018-12-09T19:33:54.260Z,83.78
2018-12-09T19:36:24.231Z,83.67
2018-12-09T19:38:53.802Z,84.43
2018-12-09T19:41:23.207Z,83.25
2018-12-09T19:43:53.027Z,82.07
2018-12-09T19:46:21.875Z,82.07
2018-12-09T19:53:58.651Z,84.00
2018-12-09T19:56:27.697Z,84.25
2018-12-09T19:58:59.593Z,84.36
2018-12-09T20:01:28.287Z,84.44
2018-12-09T20:03:57.293Z,84.67
2018-12-09T20:09:05.016Z,85.25
2018-12-09T20:11:34.005Z,86.27
2018-12-09T20:14:04.217Z,85.18
2018-12-09T20:16:37.150Z,85.08
2018-12-09T20:19:06.427Z,85.05
2018-12-09T20:21:35.437Z,85.79
2018-12-09T20:24:06.179Z,85.94
2018-12-09T20:26:35.031Z,86.15
2018-12-09T20:29:06.131Z,86.16
2018-12-09T20:31:34.716Z,86.02
2018-12-09T20:34:07.829Z,86.64
2018-12-09T20:36:37.535Z,87.44
2018-12-09T20:39:07.821Z,87.17
2018-12-09T20:41:36.817Z,87.26
2018-12-09T20:44:06.612Z,87.21
2018-12-09T20:49:11.431Z,93.15
2018-12-09T20:51:42.598Z,90.06
2018-12-09T20:54:14.886Z,85.54
2018-12-09T20:56:44.447Z,84.26
2018-12-09T21:01:46.416Z,85.02
2018-12-09T21:04:15.069Z,85.77
2018-12-09T21:06:44.675Z,86.24
2018-12-09T21:09:13.309Z,86.36
2018-12-09T21:11:43.007Z,86.70
2018-12-09T21:14:11.864Z,86.83
2018-12-09T21:16:41.307Z,86.18
2018-12-09T21:19:10.025Z,86.06
2018-12-09T21:21:38.676Z,85.45
2018-12-09T21:24:07.662Z,85.38
2018-12-09T21:26:36.197Z,85.81
2018-12-09T21:29:04.773Z,86.32
2018-12-09T21:31:33.263Z,86.83
2018-12-09T21:34:01.847Z,86.46
2018-12-09T21:36:30.380Z,86.50
2018-12-09T21:38:59.328Z,86.10
2018-12-09T21:41:27.866Z,86.25
2018-12-09T21:43:56.740Z,86.24
2018-12-09T21:46:25.382Z,85.09
2018-12-09T21:48:54.160Z,85.69
2018-12-09T21:51:22.695Z,86.88
2018-12-09T21:53:51.295Z,86.87
2018-12-09T21:56:19.732Z,86.25
2018-12-09T21:58:48.227Z,86.56
2018-12-09T22:01:16.809Z,86.15
2018-12-09T22:03:45.335Z,86.33
2018-12-09T22:06:13.864Z,86.16
2018-12-09T22:08:42.393Z,86.24
2018-12-09T22:11:10.880Z,86.47
2018-12-09T22:13:39.350Z,86.39
2018-12-09T22:16:07.833Z,86.37
2018-12-09T22:18:36.701Z,86.71
2018-12-09T22:21:05.214Z,86.67
2018-12-09T22:23:33.675Z,86.76
2018-12-09T22:26:02.162Z,86.88
2018-12-09T22:28:30.590Z,87.16
2018-12-09T22:31:00.784Z,86.89
2018-12-09T22:33:29.253Z,86.27
2018-12-09T22:35:57.637Z,86.66
2018-12-09T22:38:26.957Z,86.66
2018-12-09T22:40:55.627Z,86.26
2018-12-09T22:43:24.037Z,86.50
2018-12-09T22:45:53.545Z,87.79
2018-12-09T22:48:21.991Z,88.07
2018-12-09T22:50:50.507Z,87.85
2018-12-09T22:53:18.972Z,87.77
2018-12-09T22:55:47.394Z,87.68
2018-12-09T22:58:16.172Z,87.83
2018-12-09T23:00:48.017Z,86.82
2018-12-09T23:03:16.471Z,85.88
2018-12-09T23:05:44.900Z,87.03
2018-12-09T23:08:13.391Z,87.88
2018-12-09T23:10:41.806Z,87.05
2018-12-09T23:13:10.311Z,86.43
2018-12-09T23:15:38.799Z,86.72
2018-12-09T23:18:07.505Z,86.27
2018-12-09T23:20:35.917Z,86.02
2018-12-09T23:23:04.385Z,86.49
2018-12-09T23:25:32.842Z,86.47
2018-12-09T23:28:01.279Z,85.46
2018-12-09T23:30:29.775Z,85.86
2018-12-09T23:32:58.214Z,86.65
2018-12-09T23:35:26.642Z,86.92
2018-12-09T23:37:55.082Z,86.11
2018-12-09T23:40:23.508Z,86.03
2018-12-09T23:42:51.937Z,86.57
2018-12-09T23:45:20.449Z,86.86
2018-12-09T23:47:48.851Z,85.93
2018-12-09T23:50:17.279Z,85.97
2018-12-09T23:52:45.747Z,86.28
2018-12-09T23:55:14.203Z,86.23
2018-12-09T23:57:42.634Z,86.08
